createdAt,value
2022-12-07T00:00:06.111Z,66.91
2022-12-07T00:01:06.278Z,67.29
2022-12-07T00:02:06.487Z,68.04
2022-12-07T00:03:06.692Z,67.60
2022-12-07T00:04:06.774Z,67.63
2022-12-07T00:05:06.922Z,67.11
2022-12-07T00:06:07.110Z,67.32
2022-12-07T00:07:07.301Z,67.43
2022-12-07T00:08:07.529Z,67.73
2022-12-07T00:09:07.656Z,67.22
2022-12-07T00:10:07.792Z,67.52
2022-12-07T00:11:07.990Z,67.52
2022-12-07T00:12:08.134Z,67.22
2022-12-07T00:13:08.319Z,67.32
2022-12-07T00:14:08.456Z,67.52
2022-12-07T00:15:08.636Z,67.94
2022-12-07T00:16:08.837Z,67.02
2022-12-07T00:17:09.012Z,66.30
2022-12-07T00:18:09.424Z,66.40
2022-12-07T00:19:09.364Z,66.71
2022-12-07T00:20:09.534Z,66.81
2022-12-07T00:21:09.721Z,66.40
2022-12-07T00:22:09.885Z,66.09
2022-12-07T00:23:10.085Z,66.71
2022-12-07T00:24:10.265Z,66.71
2022-12-07T00:25:10.436Z,65.89
2022-12-07T00:26:10.613Z,65.58
2022-12-07T00:27:10.796Z,66.19
2022-12-07T00:28:10.971Z,65.99
2022-12-07T00:29:11.157Z,66.12
2022-12-07T00:30:11.330Z,66.53
2022-12-07T00:31:11.498Z,66.94
2022-12-07T00:32:11.738Z,67.25
2022-12-07T00:33:11.866Z,67.22
2022-12-07T00:34:12.057Z,66.63
2022-12-07T00:35:12.207Z,66.74
2022-12-07T00:36:12.390Z,66.94
2022-12-07T00:37:12.556Z,67.05
2022-12-07T00:38:12.765Z,66.63
2022-12-07T00:39:12.906Z,65.92
2022-12-07T00:40:13.072Z,65.71
2022-12-07T00:41:13.252Z,66.22
2022-12-07T00:42:13.429Z,66.74
2022-12-07T00:43:13.627Z,66.84
2022-12-07T00:44:13.767Z,66.53
2022-12-07T00:45:13.959Z,66.53
2022-12-07T00:46:14.279Z,66.22
2022-12-07T00:47:14.406Z,66.02
2022-12-07T00:48:14.489Z,65.92
2022-12-07T00:49:14.670Z,66.33
2022-12-07T00:50:14.841Z,66.74
2022-12-07T00:51:15.020Z,66.94
2022-12-07T00:52:15.198Z,67.05
2022-12-07T00:53:15.381Z,67.14
2022-12-07T00:54:15.573Z,66.84
2022-12-07T00:55:15.740Z,66.63
2022-12-07T00:56:15.919Z,66.84
2022-12-07T00:57:16.095Z,66.94
2022-12-07T00:58:16.272Z,66.74
2022-12-07T00:59:16.480Z,65.81
2022-12-07T01:00:16.643Z,65.61
2022-12-07T01:01:16.879Z,66.12
2022-12-07T01:02:16.984Z,66.43
2022-12-07T01:03:17.180Z,66.43
2022-12-07T01:04:17.353Z,66.43
2022-12-07T01:05:17.563Z,66.33
2022-12-07T01:06:17.692Z,66.63
2022-12-07T01:07:17.875Z,66.12
2022-12-07T01:08:18.119Z,66.43
2022-12-07T01:09:18.273Z,66.67
2022-12-07T01:10:18.404Z,66.87
2022-12-07T01:11:18.576Z,66.84
2022-12-07T01:12:18.755Z,66.94
2022-12-07T01:13:18.939Z,66.84
2022-12-07T01:14:19.135Z,66.84
2022-12-07T01:15:19.278Z,66.67
2022-12-07T01:16:19.546Z,66.56
2022-12-07T01:17:19.607Z,66.25
2022-12-07T01:18:19.780Z,66.25
2022-12-07T01:19:20.094Z,66.56
2022-12-07T01:20:20.114Z,66.67
2022-12-07T01:21:20.306Z,66.56
2022-12-07T01:22:20.467Z,66.67
2022-12-07T01:23:20.647Z,66.77
2022-12-07T01:24:20.836Z,66.56
2022-12-07T01:25:21.027Z,66.67
2022-12-07T01:26:21.197Z,66.56
2022-12-07T01:27:21.387Z,66.63
2022-12-07T01:28:21.556Z,66.67
2022-12-07T01:29:21.749Z,66.56
2022-12-07T01:30:21.945Z,66.53
2022-12-07T01:31:22.197Z,66.46
2022-12-07T01:32:22.279Z,66.46
2022-12-07T01:33:22.459Z,66.56
2022-12-07T01:34:22.678Z,66.56
2022-12-07T01:35:22.813Z,66.46
2022-12-07T01:36:22.996Z,66.46
2022-12-07T01:37:23.172Z,66.36
2022-12-07T01:38:23.354Z,66.36
2022-12-07T01:39:23.599Z,66.36
2022-12-07T01:40:23.704Z,66.16
2022-12-07T01:41:23.880Z,66.25
2022-12-07T01:42:24.060Z,66.36
2022-12-07T01:43:24.233Z,66.25
2022-12-07T01:44:24.443Z,66.36
2022-12-07T01:45:24.592Z,66.46
2022-12-07T01:46:24.793Z,66.25
2022-12-07T01:47:24.922Z,66.25
2022-12-07T01:48:25.090Z,66.36
2022-12-07T01:49:25.303Z,66.46
2022-12-07T01:50:25.434Z,66.36
2022-12-07T01:51:25.615Z,66.46
2022-12-07T01:52:25.796Z,66.46
2022-12-07T01:53:25.982Z,66.46
2022-12-07T01:54:26.168Z,66.25
2022-12-07T01:55:26.361Z,66.36
2022-12-07T01:56:26.525Z,66.46
2022-12-07T01:57:26.704Z,66.25
2022-12-07T01:58:26.878Z,66.16
2022-12-07T01:59:27.078Z,66.16
2022-12-07T02:00:27.269Z,66.36
2022-12-07T02:01:27.426Z,66.46
2022-12-07T02:02:27.593Z,66.56
2022-12-07T02:03:27.743Z,66.56
2022-12-07T02:04:27.921Z,66.19
2022-12-07T02:05:28.146Z,66.25
2022-12-07T02:06:28.276Z,66.49
2022-12-07T02:07:28.466Z,66.46
2022-12-07T02:08:28.636Z,66.39
2022-12-07T02:09:28.816Z,66.39
2022-12-07T02:10:29.026Z,66.19
2022-12-07T02:11:29.166Z,66.08
2022-12-07T02:12:29.337Z,66.39
2022-12-07T02:13:29.518Z,66.60
2022-12-07T02:14:29.698Z,66.08
2022-12-07T02:15:29.935Z,65.67
2022-12-07T02:16:30.049Z,65.98
2022-12-07T02:17:30.247Z,66.28
2022-12-07T02:18:30.428Z,65.88
2022-12-07T02:19:30.598Z,66.19
2022-12-07T02:20:30.790Z,66.28
2022-12-07T02:21:31.000Z,66.49
2022-12-07T02:22:31.147Z,66.39
2022-12-07T02:23:31.304Z,66.39
2022-12-07T02:24:31.477Z,66.49
2022-12-07T02:25:31.679Z,66.60
2022-12-07T02:26:31.818Z,66.70
2022-12-07T02:27:32.004Z,66.39
2022-12-07T02:28:32.176Z,66.39
2022-12-07T02:29:32.351Z,66.60
2022-12-07T02:30:32.571Z,66.49
2022-12-07T02:31:32.815Z,66.19
2022-12-07T02:32:32.852Z,66.39
2022-12-07T02:33:33.032Z,66.49
2022-12-07T02:34:33.210Z,66.60
2022-12-07T02:35:33.472Z,66.52
2022-12-07T02:36:33.573Z,66.49
2022-12-07T02:37:33.751Z,66.60
2022-12-07T02:38:33.922Z,66.60
2022-12-07T02:39:34.118Z,66.60
2022-12-07T02:40:34.304Z,66.49
2022-12-07T02:41:34.476Z,66.52
2022-12-07T02:42:34.606Z,66.39
2022-12-07T02:43:34.788Z,66.39
2022-12-07T02:44:34.969Z,66.52
2022-12-07T02:45:35.146Z,66.60
2022-12-07T02:46:35.442Z,66.60
2022-12-07T02:47:35.564Z,66.73
2022-12-07T02:48:35.666Z,66.83
2022-12-07T02:49:35.835Z,66.93
2022-12-07T02:50:36.015Z,66.93
2022-12-07T02:51:36.214Z,66.93
2022-12-07T02:52:36.348Z,66.93
2022-12-07T02:53:36.540Z,66.93
2022-12-07T02:54:36.695Z,66.90
2022-12-07T02:55:36.876Z,66.93
2022-12-07T02:56:37.074Z,66.90
2022-12-07T02:57:37.255Z,66.93
2022-12-07T02:58:37.421Z,66.93
2022-12-07T02:59:37.656Z,66.80
2022-12-07T03:00:37.777Z,66.93
2022-12-07T03:01:37.997Z,66.90
2022-12-07T03:02:38.175Z,67.00
2022-12-07T03:03:38.297Z,66.90
2022-12-07T03:04:38.482Z,66.90
2022-12-07T03:05:38.663Z,66.90
2022-12-07T03:06:38.828Z,66.93
2022-12-07T03:07:39.061Z,66.93
2022-12-07T03:08:39.178Z,67.03
2022-12-07T03:09:39.359Z,67.00
2022-12-07T03:10:39.519Z,67.03
2022-12-07T03:11:39.697Z,67.03
2022-12-07T03:12:39.879Z,66.80
2022-12-07T03:13:40.061Z,66.93
2022-12-07T03:14:40.232Z,67.03
2022-12-07T03:15:40.485Z,67.00
2022-12-07T03:16:40.591Z,67.03
2022-12-07T03:17:40.791Z,67.03
2022-12-07T03:18:40.950Z,67.03
2022-12-07T03:19:41.120Z,67.03
2022-12-07T03:20:41.301Z,67.00
2022-12-07T03:21:41.480Z,67.00
2022-12-07T03:22:41.672Z,67.00
2022-12-07T03:23:41.841Z,67.00
2022-12-07T03:24:42.027Z,67.03
2022-12-07T03:25:42.202Z,67.03
2022-12-07T03:26:42.366Z,67.11
2022-12-07T03:27:42.571Z,67.14
2022-12-07T03:28:42.742Z,67.03
2022-12-07T03:29:42.921Z,67.03
2022-12-07T03:30:43.141Z,67.03
2022-12-07T03:31:43.301Z,67.00
2022-12-07T03:32:43.451Z,66.93
2022-12-07T03:33:43.625Z,67.03
2022-12-07T03:34:43.783Z,67.03
2022-12-07T03:35:43.963Z,67.03
2022-12-07T03:36:44.151Z,67.03
2022-12-07T03:37:44.324Z,67.14
2022-12-07T03:38:44.504Z,67.11
2022-12-07T03:39:44.673Z,67.03
2022-12-07T03:40:44.856Z,66.93
2022-12-07T03:41:45.583Z,67.03
2022-12-07T03:42:45.214Z,67.03
2022-12-07T03:43:45.386Z,67.03
2022-12-07T03:44:45.566Z,67.03
2022-12-07T03:45:45.737Z,67.03
2022-12-07T03:46:45.965Z,67.11
2022-12-07T03:47:46.096Z,67.11
2022-12-07T03:48:46.266Z,67.03
2022-12-07T03:49:46.427Z,67.14
2022-12-07T03:50:46.580Z,67.14
2022-12-07T03:51:46.758Z,67.14
2022-12-07T03:52:46.979Z,67.14
2022-12-07T03:53:47.126Z,67.11
2022-12-07T03:54:47.308Z,67.14
2022-12-07T03:55:47.496Z,67.14
2022-12-07T03:56:47.688Z,67.14
2022-12-07T03:57:47.877Z,67.14
2022-12-07T03:58:48.018Z,67.24
2022-12-07T03:59:48.173Z,67.24
2022-12-07T04:00:48.371Z,67.24
2022-12-07T04:01:48.559Z,67.35
2022-12-07T04:02:48.750Z,67.35
2022-12-07T04:03:48.841Z,67.35
2022-12-07T04:04:49.039Z,67.44
2022-12-07T04:05:49.189Z,67.55
2022-12-07T04:06:49.369Z,67.55
2022-12-07T04:07:49.629Z,67.55
2022-12-07T04:08:49.755Z,67.55
2022-12-07T04:09:49.910Z,67.55
2022-12-07T04:10:50.100Z,67.65
2022-12-07T04:11:50.282Z,67.65
2022-12-07T04:12:50.480Z,67.65
2022-12-07T04:13:50.631Z,67.65
2022-12-07T04:14:50.781Z,67.76
2022-12-07T04:15:51.030Z,67.76
2022-12-07T04:16:51.122Z,67.76
2022-12-07T04:17:51.283Z,67.86
2022-12-07T04:18:51.498Z,67.96
2022-12-07T04:19:51.642Z,68.06
2022-12-07T04:20:51.832Z,68.16
2022-12-07T04:21:51.985Z,68.16
2022-12-07T04:22:52.171Z,68.27
2022-12-07T04:23:52.341Z,68.19
2022-12-07T04:24:52.523Z,68.16
2022-12-07T04:25:52.702Z,68.27
2022-12-07T04:26:52.896Z,68.37
2022-12-07T04:27:53.078Z,68.37
2022-12-07T04:28:53.285Z,68.48
2022-12-07T04:29:53.434Z,68.61
2022-12-07T04:30:53.632Z,68.61
2022-12-07T04:31:53.898Z,68.61
2022-12-07T04:32:53.994Z,68.71
2022-12-07T04:33:54.205Z,68.71
2022-12-07T04:34:56.055Z,68.81
2022-12-07T04:35:54.516Z,68.81
2022-12-07T04:36:54.707Z,68.91
2022-12-07T04:37:54.865Z,68.91
2022-12-07T04:38:55.068Z,69.02
2022-12-07T04:39:55.215Z,68.91
2022-12-07T04:40:55.406Z,68.91
2022-12-07T04:41:55.561Z,68.91
2022-12-07T04:42:55.758Z,69.02
2022-12-07T04:43:55.952Z,69.02
2022-12-07T04:44:56.088Z,68.91
2022-12-07T04:45:56.277Z,68.91
2022-12-07T04:46:56.558Z,68.91
2022-12-07T04:47:56.627Z,69.02
2022-12-07T04:48:56.813Z,69.09
2022-12-07T04:49:56.947Z,69.02
2022-12-07T04:50:57.152Z,69.02
2022-12-07T04:51:57.327Z,69.12
2022-12-07T04:52:57.549Z,69.02
2022-12-07T04:53:57.678Z,69.02
2022-12-07T04:54:57.838Z,69.12
2022-12-07T04:55:58.010Z,69.23
2022-12-07T04:56:58.199Z,69.23
2022-12-07T04:57:58.380Z,69.29
2022-12-07T04:58:58.539Z,69.43
2022-12-07T04:59:58.765Z,69.32
2022-12-07T05:00:58.979Z,69.32
2022-12-07T05:01:59.087Z,69.23
2022-12-07T05:02:59.268Z,69.32
2022-12-07T05:03:59.409Z,69.32
2022-12-07T05:04:59.570Z,69.40
2022-12-07T05:05:59.757Z,69.53
2022-12-07T05:06:59.923Z,69.53
2022-12-07T05:08:00.178Z,69.53
2022-12-07T05:09:00.277Z,69.53
2022-12-07T05:10:00.942Z,69.60
2022-12-07T05:11:00.603Z,69.64
2022-12-07T05:12:00.767Z,69.64
2022-12-07T05:13:00.953Z,69.74
2022-12-07T05:14:01.093Z,69.84
2022-12-07T05:15:01.263Z,69.94
2022-12-07T05:16:01.465Z,70.04
2022-12-07T05:17:01.593Z,70.04
2022-12-07T05:18:01.796Z,70.04
2022-12-07T05:19:01.919Z,70.15
2022-12-07T05:20:02.493Z,70.15
2022-12-07T05:21:02.263Z,70.22
2022-12-07T05:22:02.425Z,70.32
2022-12-07T05:23:02.614Z,70.56
2022-12-07T05:24:02.769Z,70.46
2022-12-07T05:25:02.935Z,70.56
2022-12-07T05:26:03.119Z,70.66
2022-12-07T05:27:03.293Z,70.56
2022-12-07T05:28:03.459Z,70.63
2022-12-07T05:29:03.625Z,70.76
2022-12-07T05:30:04.003Z,70.87
2022-12-07T05:31:03.947Z,70.87
2022-12-07T05:32:04.163Z,70.94
2022-12-07T05:33:04.275Z,70.97
2022-12-07T05:34:04.436Z,70.94
2022-12-07T05:35:04.601Z,70.84
2022-12-07T05:36:04.758Z,70.73
2022-12-07T05:37:04.947Z,70.84
2022-12-07T05:38:05.098Z,70.94
2022-12-07T05:39:05.265Z,70.66
2022-12-07T05:40:05.663Z,70.84
2022-12-07T05:41:05.607Z,70.84
2022-12-07T05:42:05.787Z,70.94
2022-12-07T05:43:05.949Z,71.04
2022-12-07T05:44:06.106Z,71.14
2022-12-07T05:45:06.290Z,71.14
2022-12-07T05:46:06.504Z,70.94
2022-12-07T05:47:06.646Z,71.04
2022-12-07T05:48:06.799Z,71.14
2022-12-07T05:49:06.971Z,71.25
2022-12-07T05:50:07.128Z,71.04
2022-12-07T05:51:07.300Z,71.04
2022-12-07T05:52:07.469Z,70.73
2022-12-07T05:53:07.634Z,71.04
2022-12-07T05:54:07.815Z,71.04
2022-12-07T05:55:07.965Z,70.94
2022-12-07T05:56:08.131Z,70.94
2022-12-07T05:57:08.311Z,71.04
2022-12-07T05:58:08.470Z,71.25
2022-12-07T05:59:08.632Z,71.25
2022-12-07T06:00:08.813Z,71.14
2022-12-07T06:01:08.969Z,71.14
2022-12-07T06:02:09.386Z,71.25
2022-12-07T06:03:09.406Z,71.04
2022-12-07T06:04:09.453Z,71.14
2022-12-07T06:05:09.627Z,71.25
2022-12-07T06:06:09.865Z,71.35
2022-12-07T06:07:09.986Z,71.04
2022-12-07T06:08:10.235Z,71.04
2022-12-07T06:09:10.313Z,70.73
2022-12-07T06:10:10.481Z,70.53
2022-12-07T06:11:10.645Z,70.73
2022-12-07T06:12:10.855Z,70.84
2022-12-07T06:13:10.983Z,71.14
2022-12-07T06:14:11.144Z,71.25
2022-12-07T06:15:11.305Z,71.25
2022-12-07T06:16:11.540Z,71.35
2022-12-07T06:17:11.678Z,71.35
2022-12-07T06:18:11.837Z,71.42
2022-12-07T06:19:12.009Z,71.45
2022-12-07T06:20:12.165Z,71.25
2022-12-07T06:21:12.337Z,71.42
2022-12-07T06:22:12.512Z,71.45
2022-12-07T06:23:12.666Z,71.42
2022-12-07T06:24:12.825Z,71.55
2022-12-07T06:25:12.987Z,71.52
2022-12-07T06:26:13.154Z,71.66
2022-12-07T06:27:13.340Z,71.72
2022-12-07T06:28:13.506Z,71.66
2022-12-07T06:29:13.685Z,71.55
2022-12-07T06:30:13.838Z,71.62
2022-12-07T06:31:14.388Z,71.76
2022-12-07T06:32:14.180Z,71.76
2022-12-07T06:33:14.339Z,71.72
2022-12-07T06:34:14.498Z,71.86
2022-12-07T06:35:14.662Z,71.86
2022-12-07T06:36:14.830Z,71.72
2022-12-07T06:37:15.010Z,71.66
2022-12-07T06:38:15.292Z,71.83
2022-12-07T06:39:15.339Z,71.83
2022-12-07T06:40:15.500Z,71.72
2022-12-07T06:41:15.671Z,71.72
2022-12-07T06:42:15.851Z,71.72
2022-12-07T06:43:16.011Z,71.62
2022-12-07T06:44:16.168Z,71.72
2022-12-07T06:45:16.338Z,71.72
2022-12-07T06:46:16.600Z,71.72
2022-12-07T06:47:40.596Z,71.72
2022-12-07T06:48:17.821Z,71.62
2022-12-07T06:49:16.992Z,71.72
2022-12-07T06:50:17.152Z,71.62
2022-12-07T06:51:17.322Z,71.83
2022-12-07T06:52:17.502Z,71.93
2022-12-07T06:53:17.666Z,71.83
2022-12-07T06:54:17.822Z,71.21
2022-12-07T06:55:17.990Z,71.21
2022-12-07T06:56:18.158Z,71.11
2022-12-07T06:57:18.346Z,71.31
2022-12-07T06:58:18.539Z,71.42
2022-12-07T06:59:18.685Z,71.52
2022-12-07T07:00:22.137Z,71.62
2022-12-07T07:01:19.036Z,71.72
2022-12-07T07:02:19.252Z,71.83
2022-12-07T07:03:19.342Z,71.83
2022-12-07T07:04:19.507Z,71.83
2022-12-07T07:05:19.683Z,71.83
2022-12-07T07:06:19.846Z,71.80
2022-12-07T07:07:20.038Z,71.93
2022-12-07T07:08:22.344Z,71.93
2022-12-07T07:09:20.421Z,71.93
2022-12-07T07:10:20.557Z,71.83
2022-12-07T07:11:20.745Z,71.83
2022-12-07T07:12:20.933Z,71.93
2022-12-07T07:13:21.074Z,71.80
2022-12-07T07:14:21.245Z,71.72
2022-12-07T07:15:21.414Z,71.69
2022-12-07T07:16:21.599Z,71.83
2022-12-07T07:17:21.778Z,71.83
2022-12-07T07:18:21.938Z,71.80
2022-12-07T07:19:22.117Z,71.90
2022-12-07T07:20:22.298Z,71.59
2022-12-07T07:21:22.486Z,71.80
2022-12-07T07:22:22.668Z,71.80
2022-12-07T07:23:22.849Z,71.80
2022-12-07T07:24:23.017Z,71.80
2022-12-07T07:25:23.193Z,71.69
2022-12-07T07:26:23.624Z,71.69
2022-12-07T07:27:23.549Z,71.59
2022-12-07T07:28:23.691Z,71.69
2022-12-07T07:29:23.868Z,71.69
2022-12-07T07:30:24.255Z,71.69
2022-12-07T07:31:24.298Z,71.69
2022-12-07T07:32:24.401Z,71.59
2022-12-07T07:33:24.570Z,71.48
2022-12-07T07:34:24.760Z,71.48
2022-12-07T07:35:24.910Z,71.28
2022-12-07T07:36:25.092Z,71.39
2022-12-07T07:37:25.280Z,71.28
2022-12-07T07:38:25.431Z,71.39
2022-12-07T07:39:25.595Z,71.28
2022-12-07T07:40:25.762Z,71.28
2022-12-07T07:41:25.933Z,71.28
2022-12-07T07:42:26.112Z,71.18
2022-12-07T07:43:26.274Z,71.18
2022-12-07T07:44:31.621Z,71.18
2022-12-07T07:45:27.618Z,71.18
2022-12-07T07:46:26.849Z,71.08
2022-12-07T07:47:26.973Z,71.08
2022-12-07T07:48:27.149Z,71.08
2022-12-07T07:49:27.309Z,70.97
2022-12-07T07:50:27.550Z,71.08
2022-12-07T07:51:27.663Z,70.97
2022-12-07T07:52:27.832Z,70.97
2022-12-07T07:53:27.994Z,70.97
2022-12-07T07:54:28.166Z,71.08
2022-12-07T07:55:28.323Z,70.97
2022-12-07T07:56:28.516Z,70.97
2022-12-07T07:57:28.675Z,70.97
2022-12-07T07:58:28.846Z,70.87
2022-12-07T07:59:29.015Z,70.97
2022-12-07T08:00:29.183Z,70.97
2022-12-07T08:01:29.384Z,70.87
2022-12-07T08:02:29.534Z,70.87
2022-12-07T08:03:29.692Z,70.87
2022-12-07T08:04:29.874Z,70.97
2022-12-07T08:05:30.035Z,70.97
2022-12-07T08:06:32.353Z,70.87
2022-12-07T08:07:30.377Z,70.84
2022-12-07T08:08:30.606Z,70.87
2022-12-07T08:09:30.723Z,70.73
2022-12-07T08:10:30.899Z,70.84
2022-12-07T08:11:31.058Z,70.84
2022-12-07T08:12:31.228Z,70.87
2022-12-07T08:13:32.011Z,70.73
2022-12-07T08:14:31.608Z,70.73
2022-12-07T08:15:31.937Z,70.73
2022-12-07T08:16:32.052Z,70.73
2022-12-07T08:17:32.098Z,70.84
2022-12-07T08:18:32.268Z,70.73
2022-12-07T08:19:32.470Z,70.64
2022-12-07T08:20:32.611Z,70.64
2022-12-07T08:21:32.790Z,70.53
2022-12-07T08:22:32.950Z,70.43
2022-12-07T08:23:39.575Z,70.43
2022-12-07T08:24:34.317Z,70.32
2022-12-07T08:25:33.471Z,70.43
2022-12-07T08:26:33.639Z,70.32
2022-12-07T08:27:33.803Z,70.02
2022-12-07T08:28:33.975Z,70.12
2022-12-07T08:29:34.140Z,70.22
2022-12-07T08:30:34.315Z,70.12
2022-12-07T08:31:34.505Z,70.12
2022-12-07T08:32:34.651Z,69.92
2022-12-07T08:33:34.800Z,69.71
2022-12-07T08:34:35.001Z,69.61
2022-12-07T08:35:35.191Z,69.40
2022-12-07T08:36:35.305Z,69.30
2022-12-07T08:37:35.503Z,69.20
2022-12-07T08:38:35.680Z,68.99
2022-12-07T08:39:35.845Z,69.10
2022-12-07T08:40:36.043Z,68.79
2022-12-07T08:41:36.194Z,68.45
2022-12-07T08:42:36.373Z,68.45
2022-12-07T08:43:36.565Z,68.45
2022-12-07T08:44:36.743Z,68.55
2022-12-07T08:45:36.910Z,68.14
2022-12-07T08:46:37.162Z,67.83
2022-12-07T08:47:37.332Z,67.83
2022-12-07T08:48:37.465Z,67.63
2022-12-07T08:49:37.616Z,67.52
2022-12-07T08:50:37.794Z,67.43
2022-12-07T08:51:37.974Z,67.43
2022-12-07T08:52:38.154Z,67.63
2022-12-07T08:53:38.325Z,67.63
2022-12-07T08:54:38.505Z,67.22
2022-12-07T08:55:38.666Z,68.14
2022-12-07T08:56:38.879Z,75.38
2022-12-07T08:57:39.046Z,78.97
2022-12-07T08:58:39.220Z,78.56
2022-12-07T08:59:39.386Z,78.63
2022-12-07T09:00:39.590Z,78.42
2022-12-07T09:01:39.782Z,75.65
2022-12-07T09:02:39.966Z,74.49
2022-12-07T09:03:40.119Z,74.46
2022-12-07T09:04:40.317Z,73.33
2022-12-07T09:05:40.513Z,73.85
2022-12-07T09:06:40.722Z,72.92
2022-12-07T09:07:40.846Z,72.48
2022-12-07T09:08:41.026Z,72.28
2022-12-07T09:09:41.173Z,71.87
2022-12-07T09:10:41.358Z,71.63
2022-12-07T09:11:41.509Z,70.40
2022-12-07T09:12:41.755Z,69.18
2022-12-07T09:13:41.869Z,69.28
2022-12-07T09:14:42.057Z,69.48
2022-12-07T09:15:42.291Z,69.48
2022-12-07T09:16:42.429Z,69.18
2022-12-07T09:17:42.590Z,68.33
2022-12-07T09:18:42.762Z,67.61
2022-12-07T09:19:42.909Z,67.00
2022-12-07T09:20:43.099Z,66.69
2022-12-07T09:21:43.260Z,66.69
2022-12-07T09:22:43.432Z,66.69
2022-12-07T09:23:43.615Z,66.18
2022-12-07T09:24:43.785Z,65.06
2022-12-07T09:25:43.954Z,65.06
2022-12-07T09:26:44.165Z,65.67
2022-12-07T09:27:44.292Z,66.18
2022-12-07T09:28:44.470Z,66.39
2022-12-07T09:29:44.622Z,66.39
2022-12-07T09:31:21.083Z,66.28
2022-12-07T09:31:46.092Z,65.98
2022-12-07T09:32:45.172Z,66.18
2022-12-07T09:33:45.317Z,65.88
2022-12-07T09:34:45.551Z,65.37
2022-12-07T09:35:45.709Z,64.96
2022-12-07T09:36:45.842Z,64.96
2022-12-07T09:37:46.043Z,65.06
2022-12-07T09:38:46.213Z,65.06
2022-12-07T09:39:50.319Z,64.55
2022-12-07T09:40:46.566Z,64.55
2022-12-07T09:41:46.724Z,64.65
2022-12-07T09:42:46.937Z,64.96
2022-12-07T09:43:47.066Z,65.06
2022-12-07T09:44:47.237Z,64.96
2022-12-07T09:45:48.795Z,64.24
2022-12-07T09:46:47.649Z,63.53
2022-12-07T09:47:47.761Z,63.32
2022-12-07T09:48:47.927Z,63.43
2022-12-07T09:49:48.116Z,63.12
2022-12-07T09:50:48.296Z,66.59
2022-12-07T09:51:48.478Z,67.71
2022-12-07T09:52:48.705Z,67.51
2022-12-07T09:53:48.881Z,66.80
2022-12-07T09:54:49.026Z,66.28
2022-12-07T09:55:49.223Z,65.98
2022-12-07T09:56:49.397Z,65.67
2022-12-07T09:57:49.617Z,65.16
2022-12-07T09:58:49.745Z,64.96
2022-12-07T09:59:49.928Z,65.06
2022-12-07T10:00:50.107Z,64.96
2022-12-07T10:01:50.333Z,64.99
2022-12-07T10:02:50.459Z,64.55
2022-12-07T10:03:50.615Z,64.34
2022-12-07T10:04:50.843Z,64.45
2022-12-07T10:05:50.950Z,64.55
2022-12-07T10:06:51.138Z,64.78
2022-12-07T10:07:51.366Z,64.68
2022-12-07T10:08:51.467Z,64.07
2022-12-07T10:09:51.660Z,64.27
2022-12-07T10:10:51.814Z,63.86
2022-12-07T10:11:51.989Z,63.93
2022-12-07T10:12:52.178Z,63.56
2022-12-07T10:13:52.350Z,63.35
2022-12-07T10:15:06.999Z,63.35
2022-12-07T10:15:53.728Z,63.35
2022-12-07T10:16:52.808Z,63.35
2022-12-07T10:17:53.001Z,63.35
2022-12-07T10:18:53.122Z,63.25
2022-12-07T10:19:53.282Z,63.25
2022-12-07T10:20:53.440Z,63.56
2022-12-07T10:21:53.603Z,64.89
2022-12-07T10:22:53.772Z,68.94
2022-12-07T10:23:53.943Z,71.91
2022-12-07T10:24:54.099Z,73.23
2022-12-07T10:25:54.291Z,72.07
2022-12-07T10:26:54.442Z,71.67
2022-12-07T10:27:54.642Z,71.53
2022-12-07T10:28:54.795Z,72.45
2022-12-07T10:29:54.987Z,70.07
2022-12-07T10:30:55.196Z,70.48
2022-12-07T10:31:55.394Z,69.83
2022-12-07T10:32:55.495Z,69.42
2022-12-07T10:33:55.661Z,68.81
2022-12-07T10:34:55.845Z,68.27
2022-12-07T10:35:56.034Z,68.07
2022-12-07T10:36:56.194Z,68.04
2022-12-07T10:37:56.371Z,67.12
2022-12-07T10:38:56.544Z,66.71
2022-12-07T10:39:56.707Z,66.20
2022-12-07T10:40:56.860Z,65.39
2022-12-07T10:41:57.051Z,64.98
2022-12-07T10:42:57.208Z,64.87
2022-12-07T10:43:57.406Z,64.23
2022-12-07T10:44:57.689Z,63.42
2022-12-07T10:46:03.845Z,62.40
2022-12-07T10:46:59.025Z,62.40
2022-12-07T10:47:58.114Z,62.40
2022-12-07T10:48:58.266Z,61.90
2022-12-07T10:49:58.451Z,61.99
2022-12-07T10:50:58.645Z,61.99
2022-12-07T10:51:58.818Z,61.38
2022-12-07T10:52:58.983Z,60.98
2022-12-07T10:53:59.153Z,60.98
2022-12-07T10:54:59.349Z,61.18
2022-12-07T10:55:59.477Z,60.98
2022-12-07T10:56:59.650Z,60.37
2022-12-07T10:57:59.820Z,60.27
2022-12-07T10:58:59.970Z,59.99
2022-12-07T11:00:00.172Z,60.19
2022-12-07T11:01:00.429Z,60.50
2022-12-07T11:02:00.623Z,60.91
2022-12-07T11:03:00.726Z,60.91
2022-12-07T11:04:00.867Z,61.21
2022-12-07T11:05:01.358Z,60.80
2022-12-07T11:06:01.210Z,60.70
2022-12-07T11:07:01.400Z,60.60
2022-12-07T11:08:01.613Z,60.39
2022-12-07T11:09:01.741Z,60.80
2022-12-07T11:10:10.365Z,60.63
2022-12-07T11:11:03.077Z,60.22
2022-12-07T11:12:02.319Z,60.73
2022-12-07T11:13:02.452Z,60.53
2022-12-07T11:14:02.614Z,60.53
2022-12-07T11:15:02.771Z,60.45
2022-12-07T11:16:03.001Z,60.73
2022-12-07T11:17:03.164Z,60.76
2022-12-07T11:18:03.323Z,60.66
2022-12-07T11:19:03.508Z,61.07
2022-12-07T11:20:03.895Z,61.27
2022-12-07T11:21:03.855Z,61.16
2022-12-07T11:22:04.042Z,61.30
2022-12-07T11:23:04.203Z,61.47
2022-12-07T11:24:04.365Z,61.40
2022-12-07T11:25:04.545Z,61.60
2022-12-07T11:26:04.731Z,61.50
2022-12-07T11:27:04.916Z,61.40
2022-12-07T11:28:05.107Z,61.71
2022-12-07T11:29:05.275Z,61.30
2022-12-07T11:30:05.814Z,61.71
2022-12-07T11:31:05.700Z,63.75
2022-12-07T11:32:05.918Z,66.70
2022-12-07T11:33:05.981Z,66.70
2022-12-07T11:34:06.148Z,66.50
2022-12-07T11:35:06.306Z,65.28
2022-12-07T11:36:06.471Z,65.07
2022-12-07T11:37:06.638Z,65.17
2022-12-07T11:38:06.799Z,64.56
2022-12-07T11:39:06.957Z,64.15
2022-12-07T11:40:07.110Z,64.46
2022-12-07T11:41:07.273Z,64.56
2022-12-07T11:42:07.470Z,64.46
2022-12-07T11:43:07.589Z,63.75
2022-12-07T11:44:07.787Z,63.64
2022-12-07T11:45:07.936Z,63.34
2022-12-07T11:46:08.138Z,63.23
2022-12-07T11:47:08.401Z,63.23
2022-12-07T11:48:08.459Z,63.64
2022-12-07T11:49:08.610Z,63.75
2022-12-07T11:50:08.806Z,64.36
2022-12-07T11:51:08.960Z,64.25
2022-12-07T11:52:09.189Z,63.23
2022-12-07T11:53:09.277Z,63.23
2022-12-07T11:54:09.471Z,62.93
2022-12-07T11:55:09.630Z,62.52
2022-12-07T11:56:09.823Z,62.73
2022-12-07T11:57:09.994Z,62.82
2022-12-07T11:58:10.161Z,62.62
2022-12-07T11:59:10.323Z,62.93
2022-12-07T12:00:10.482Z,62.32
2022-12-07T12:01:10.632Z,62.42
2022-12-07T12:02:10.902Z,62.82
2022-12-07T12:03:11.015Z,63.13
2022-12-07T12:04:11.165Z,63.23
2022-12-07T12:05:11.366Z,62.73
2022-12-07T12:06:11.515Z,62.11
2022-12-07T12:10:13.245Z,62.01
2022-12-07T12:11:12.416Z,61.80
2022-12-07T12:15:14.157Z,62.21
2022-12-07T12:16:13.314Z,62.52
2022-12-07T12:17:13.407Z,62.32
2022-12-07T12:18:13.576Z,62.32
2022-12-07T12:19:13.726Z,62.52
2022-12-07T12:20:13.910Z,62.11
2022-12-07T12:21:16.680Z,62.11
2022-12-07T12:22:14.269Z,62.32
2022-12-07T12:23:14.400Z,62.32
2022-12-07T12:24:14.585Z,62.42
2022-12-07T12:25:14.774Z,62.52
2022-12-07T12:26:15.048Z,62.62
2022-12-07T12:27:15.098Z,62.52
2022-12-07T12:28:15.259Z,62.01
2022-12-07T12:29:15.448Z,61.91
2022-12-07T12:30:15.636Z,61.91
2022-12-07T12:31:15.842Z,61.80
2022-12-07T12:32:16.136Z,63.34
2022-12-07T12:33:16.178Z,64.46
2022-12-07T12:34:16.361Z,64.46
2022-12-07T12:35:16.557Z,63.85
2022-12-07T12:36:16.869Z,63.44
2022-12-07T12:37:16.881Z,63.23
2022-12-07T12:38:17.032Z,63.23
2022-12-07T12:39:17.253Z,63.13
2022-12-07T12:40:17.378Z,63.44
2022-12-07T12:41:17.586Z,63.03
2022-12-07T12:42:17.761Z,62.73
2022-12-07T12:43:17.920Z,62.93
2022-12-07T12:44:18.073Z,62.93
2022-12-07T12:45:18.239Z,62.82
2022-12-07T12:46:18.467Z,62.21
2022-12-07T12:47:18.557Z,62.32
2022-12-07T12:48:18.721Z,62.62
2022-12-07T12:49:18.905Z,62.52
2022-12-07T12:50:19.059Z,62.52
2022-12-07T12:51:19.244Z,62.01
2022-12-07T12:52:19.366Z,62.11
2022-12-07T12:53:19.574Z,64.05
2022-12-07T12:54:19.739Z,66.50
2022-12-07T12:55:19.928Z,68.03
2022-12-07T12:56:20.105Z,68.10
2022-12-07T12:57:20.254Z,68.71
2022-12-07T12:58:20.438Z,69.02
2022-12-07T12:59:20.638Z,69.32
2022-12-07T13:00:20.808Z,69.02